sensor_id;sensor_type;location;lat;lon;timestamp;temperature;humidity
64652;HTU21D;51062;45.120;37.660;2023-05-20T00:00:57;16.40;51.86
64652;HTU21D;51062;45.120;37.660;2023-05-20T00:03:23;16.36;51.92
64652;HTU21D;51062;45.120;37.660;2023-05-20T00:05:49;16.32;51.96
64652;HTU21D;51062;45.120;37.660;2023-05-20T00:08:17;16.30;51.99
64652;HTU21D;51062;45.120;37.660;2023-05-20T00:10:44;16.27;52.01
64652;HTU21D;51062;45.120;37.660;2023-05-20T00:13:10;16.22;52.02
64652;HTU21D;51062;45.120;37.660;2023-05-20T00:15:36;16.19;52.08
64652;HTU21D;51062;45.120;37.660;2023-05-20T00:18:03;16.16;52.11
64652;HTU21D;51062;45.120;37.660;2023-05-20T00:20:29;16.14;52.14
64652;HTU21D;51062;45.120;37.660;2023-05-20T00:22:56;16.11;52.14
64652;HTU21D;51062;45.120;37.660;2023-05-20T00:25:22;16.07;52.16
64652;HTU21D;51062;45.120;37.660;2023-05-20T00:27:48;16.04;52.21
64652;HTU21D;51062;45.120;37.660;2023-05-20T00:30:14;16.00;52.22
64652;HTU21D;51062;45.120;37.660;2023-05-20T00:32:40;15.97;52.27
64652;HTU21D;51062;45.120;37.660;2023-05-20T00:35:07;15.89;52.32
64652;HTU21D;51062;45.120;37.660;2023-05-20T00:37:34;15.84;52.39
64652;HTU21D;51062;45.120;37.660;2023-05-20T00:40:00;15.78;52.45
64652;HTU21D;51062;45.120;37.660;2023-05-20T00:42:27;15.70;52.53
64652;HTU21D;51062;45.120;37.660;2023-05-20T00:44:54;15.62;52.65
64652;HTU21D;51062;45.120;37.660;2023-05-20T00:47:32;15.56;52.77
64652;HTU21D;51062;45.120;37.660;2023-05-20T00:49:59;15.48;52.86
64652;HTU21D;51062;45.120;37.660;2023-05-20T00:52:26;15.41;52.97
64652;HTU21D;51062;45.120;37.660;2023-05-20T00:54:55;15.33;53.07
64652;HTU21D;51062;45.120;37.660;2023-05-20T00:57:22;15.28;53.14
64652;HTU21D;51062;45.120;37.660;2023-05-20T00:59:48;15.23;53.23
64652;HTU21D;51062;45.120;37.660;2023-05-20T01:02:14;15.17;53.30
64652;HTU21D;51062;45.120;37.660;2023-05-20T01:04:41;15.12;53.37
64652;HTU21D;51062;45.120;37.660;2023-05-20T01:07:13;15.08;53.45
64652;HTU21D;51062;45.120;37.660;2023-05-20T01:09:40;15.06;53.49
64652;HTU21D;51062;45.120;37.660;2023-05-20T01:12:16;15.02;53.52
64652;HTU21D;51062;45.120;37.660;2023-05-20T01:14:52;15.01;53.57
64652;HTU21D;51062;45.120;37.660;2023-05-20T01:17:23;15.00;53.62
64652;HTU21D;51062;45.120;37.660;2023-05-20T01:19:53;15.00;53.61
64652;HTU21D;51062;45.120;37.660;2023-05-20T01:22:24;15.01;53.62
64652;HTU21D;51062;45.120;37.660;2023-05-20T01:24:51;15.03;53.59
64652;HTU21D;51062;45.120;37.660;2023-05-20T01:27:21;15.02;53.61
64652;HTU21D;51062;45.120;37.660;2023-05-20T01:29:49;15.02;53.62
64652;HTU21D;51062;45.120;37.660;2023-05-20T01:32:30;14.99;53.65
64652;HTU21D;51062;45.120;37.660;2023-05-20T01:34:57;14.99;53.62
64652;HTU21D;51062;45.120;37.660;2023-05-20T01:37:25;14.96;53.65
64652;HTU21D;51062;45.120;37.660;2023-05-20T01:39:52;14.95;53.68
64652;HTU21D;51062;45.120;37.660;2023-05-20T01:42:19;14.93;53.72
64652;HTU21D;51062;45.120;37.660;2023-05-20T01:44:47;14.91;53.74
64652;HTU21D;51062;45.120;37.660;2023-05-20T01:47:13;14.87;53.77
64652;HTU21D;51062;45.120;37.660;2023-05-20T01:49:40;14.86;53.80
64652;HTU21D;51062;45.120;37.660;2023-05-20T01:52:07;14.85;53.81
64652;HTU21D;51062;45.120;37.660;2023-05-20T01:54:33;14.83;53.83
64652;HTU21D;51062;45.120;37.660;2023-05-20T01:56:59;14.83;53.88
64652;HTU21D;51062;45.120;37.660;2023-05-20T01:59:26;14.81;53.92
64652;HTU21D;51062;45.120;37.660;2023-05-20T02:01:52;14.78;53.97
64652;HTU21D;51062;45.120;37.660;2023-05-20T02:04:18;14.75;54.02
64652;HTU21D;51062;45.120;37.660;2023-05-20T02:06:45;14.73;54.04
64652;HTU21D;51062;45.120;37.660;2023-05-20T02:09:11;14.74;54.06
64652;HTU21D;51062;45.120;37.660;2023-05-20T02:11:37;14.74;54.09
64652;HTU21D;51062;45.120;37.660;2023-05-20T02:14:03;14.74;54.10
64652;HTU21D;51062;45.120;37.660;2023-05-20T02:16:29;14.74;54.14
64652;HTU21D;51062;45.120;37.660;2023-05-20T02:18:55;14.75;54.18
64652;HTU21D;51062;45.120;37.660;2023-05-20T02:21:23;14.77;54.20
64652;HTU21D;51062;45.120;37.660;2023-05-20T02:23:50;14.80;54.14
64652;HTU21D;51062;45.120;37.660;2023-05-20T02:26:17;14.83;54.10
64652;HTU21D;51062;45.120;37.660;2023-05-20T02:28:43;14.86;54.10
64652;HTU21D;51062;45.120;37.660;2023-05-20T02:31:12;14.88;54.12
64652;HTU21D;51062;45.120;37.660;2023-05-20T02:33:38;14.93;54.08
64652;HTU21D;51062;45.120;37.660;2023-05-20T02:36:05;14.97;54.04
64652;HTU21D;51062;45.120;37.660;2023-05-20T02:38:33;15.02;54.07
64652;HTU21D;51062;45.120;37.660;2023-05-20T02:41:00;15.19;54.22
64652;HTU21D;51062;45.120;37.660;2023-05-20T02:43:26;15.44;54.31
64652;HTU21D;51062;45.120;37.660;2023-05-20T02:45:52;15.73;54.22
64652;HTU21D;51062;45.120;37.660;2023-05-20T02:48:18;16.04;54.03
64652;HTU21D;51062;45.120;37.660;2023-05-20T02:50:46;16.33;53.89
64652;HTU21D;51062;45.120;37.660;2023-05-20T02:53:12;16.59;53.82
64652;HTU21D;51062;45.120;37.660;2023-05-20T02:55:39;16.85;53.84
64652;HTU21D;51062;45.120;37.660;2023-05-20T02:58:05;17.10;53.84
64652;HTU21D;51062;45.120;37.660;2023-05-20T03:00:33;17.38;53.72
64652;HTU21D;51062;45.120;37.660;2023-05-20T03:03:06;17.63;53.62
64652;HTU21D;51062;45.120;37.660;2023-05-20T03:05:33;17.84;53.56
64652;HTU21D;51062;45.120;37.660;2023-05-20T03:08:06;18.06;53.53
64652;HTU21D;51062;45.120;37.660;2023-05-20T03:10:35;18.30;53.48
64652;HTU21D;51062;45.120;37.660;2023-05-20T03:13:03;18.51;53.48
64652;HTU21D;51062;45.120;37.660;2023-05-20T03:15:38;18.78;53.45
64652;HTU21D;51062;45.120;37.660;2023-05-20T03:18:05;18.99;53.44
64652;HTU21D;51062;45.120;37.660;2023-05-20T03:20:31;19.23;53.43
64652;HTU21D;51062;45.120;37.660;2023-05-20T03:22:57;19.53;53.23
64652;HTU21D;51062;45.120;37.660;2023-05-20T03:25:24;19.83;53.04
64652;HTU21D;51062;45.120;37.660;2023-05-20T03:27:51;20.10;52.91
64652;HTU21D;51062;45.120;37.660;2023-05-20T03:30:17;20.29;52.76
64652;HTU21D;51062;45.120;37.660;2023-05-20T03:32:43;20.51;52.56
64652;HTU21D;51062;45.120;37.660;2023-05-20T03:35:09;20.69;52.59
64652;HTU21D;51062;45.120;37.660;2023-05-20T03:37:36;20.87;52.62
64652;HTU21D;51062;45.120;37.660;2023-05-20T03:40:03;21.06;52.62
64652;HTU21D;51062;45.120;37.660;2023-05-20T03:42:33;21.19;52.58
64652;HTU21D;51062;45.120;37.660;2023-05-20T03:45:00;21.15;52.82
64652;HTU21D;51062;45.120;37.660;2023-05-20T03:47:30;20.93;53.10
64652;HTU21D;51062;45.120;37.660;2023-05-20T03:49:57;20.74;52.97
64652;HTU21D;51062;45.120;37.660;2023-05-20T03:52:23;20.59;52.59
64652;HTU21D;51062;45.120;37.660;2023-05-20T03:54:49;20.65;51.85
64652;HTU21D;51062;45.120;37.660;2023-05-20T03:57:15;20.95;51.35
64652;HTU21D;51062;45.120;37.660;2023-05-20T03:59:41;21.28;51.21
64652;HTU21D;51062;45.120;37.660;2023-05-20T04:02:08;21.59;51.33
64652;HTU21D;51062;45.120;37.660;2023-05-20T04:04:35;21.95;51.15
64652;HTU21D;51062;45.120;37.660;2023-05-20T04:07:01;22.20;51.08
64652;HTU21D;51062;45.120;37.660;2023-05-20T04:09:30;22.51;51.08
64652;HTU21D;51062;45.120;37.660;2023-05-20T04:11:56;22.80;50.92
64652;HTU21D;51062;45.120;37.660;2023-05-20T04:14:23;23.09;50.82
64652;HTU21D;51062;45.120;37.660;2023-05-20T04:16:49;23.28;50.43
64652;HTU21D;51062;45.120;37.660;2023-05-20T04:19:16;23.50;50.43
64652;HTU21D;51062;45.120;37.660;2023-05-20T04:21:44;23.76;50.34
64652;HTU21D;51062;45.120;37.660;2023-05-20T04:24:12;23.96;50.11
64652;HTU21D;51062;45.120;37.660;2023-05-20T04:26:38;24.13;49.82
64652;HTU21D;51062;45.120;37.660;2023-05-20T04:29:04;24.26;49.60
64652;HTU21D;51062;45.120;37.660;2023-05-20T04:31:32;24.25;49.27
64652;HTU21D;51062;45.120;37.660;2023-05-20T04:33:58;24.25;49.51
64652;HTU21D;51062;45.120;37.660;2023-05-20T04:36:25;24.34;49.40
64652;HTU21D;51062;45.120;37.660;2023-05-20T04:38:54;24.47;49.31
64652;HTU21D;51062;45.120;37.660;2023-05-20T04:41:20;24.70;49.20
64652;HTU21D;51062;45.120;37.660;2023-05-20T04:43:47;24.91;48.82
64652;HTU21D;51062;45.120;37.660;2023-05-20T04:46:15;25.04;48.37
64652;HTU21D;51062;45.120;37.660;2023-05-20T04:48:42;25.03;48.15
64652;HTU21D;51062;45.120;37.660;2023-05-20T04:51:12;25.12;48.44
64652;HTU21D;51062;45.120;37.660;2023-05-20T04:53:38;25.23;48.02
64652;HTU21D;51062;45.120;37.660;2023-05-20T04:56:05;25.28;47.83
64652;HTU21D;51062;45.120;37.660;2023-05-20T04:58:31;25.33;47.68
64652;HTU21D;51062;45.120;37.660;2023-05-20T05:00:58;25.46;47.39
64652;HTU21D;51062;45.120;37.660;2023-05-20T05:03:25;25.49;47.31
64652;HTU21D;51062;45.120;37.660;2023-05-20T05:05:55;25.51;47.04
64652;HTU21D;51062;45.120;37.660;2023-05-20T05:08:21;25.64;46.99
64652;HTU21D;51062;45.120;37.660;2023-05-20T05:10:50;25.83;46.86
64652;HTU21D;51062;45.120;37.660;2023-05-20T05:13:16;25.86;46.70
64652;HTU21D;51062;45.120;37.660;2023-05-20T05:15:42;25.88;46.65
64652;HTU21D;51062;45.120;37.660;2023-05-20T05:18:10;25.98;46.41
64652;HTU21D;51062;45.120;37.660;2023-05-20T05:20:37;26.08;46.41
64652;HTU21D;51062;45.120;37.660;2023-05-20T05:23:04;26.08;46.17
64652;HTU21D;51062;45.120;37.660;2023-05-20T05:25:31;26.17;46.33
64652;HTU21D;51062;45.120;37.660;2023-05-20T05:27:59;26.43;46.31
64652;HTU21D;51062;45.120;37.660;2023-05-20T05:30:25;26.64;45.69
64652;HTU21D;51062;45.120;37.660;2023-05-20T05:32:51;26.64;45.33
64652;HTU21D;51062;45.120;37.660;2023-05-20T05:35:18;26.75;45.54
64652;HTU21D;51062;45.120;37.660;2023-05-20T05:37:44;26.82;45.25
64652;HTU21D;51062;45.120;37.660;2023-05-20T05:40:11;27.02;45.51
64652;HTU21D;51062;45.120;37.660;2023-05-20T05:42:37;27.31;45.19
64652;HTU21D;51062;45.120;37.660;2023-05-20T05:45:04;27.46;45.04
64652;HTU21D;51062;45.120;37.660;2023-05-20T05:47:31;27.70;44.85
64652;HTU21D;51062;45.120;37.660;2023-05-20T05:49:58;27.81;44.38
64652;HTU21D;51062;45.120;37.660;2023-05-20T05:52:30;27.72;44.31
64652;HTU21D;51062;45.120;37.660;2023-05-20T05:54:56;27.72;44.42
64652;HTU21D;51062;45.120;37.660;2023-05-20T05:57:23;27.74;43.90
64652;HTU21D;51062;45.120;37.660;2023-05-20T05:59:49;27.75;44.16
64652;HTU21D;51062;45.120;37.660;2023-05-20T06:02:15;27.80;43.82
64652;HTU21D;51062;45.120;37.660;2023-05-20T06:04:42;27.83;43.71
64652;HTU21D;51062;45.120;37.660;2023-05-20T06:07:08;27.87;43.49
64652;HTU21D;51062;45.120;37.660;2023-05-20T06:09:34;27.89;43.43
64652;HTU21D;51062;45.120;37.660;2023-05-20T06:12:01;28.00;43.38
64652;HTU21D;51062;45.120;37.660;2023-05-20T06:14:28;28.15;43.24
64652;HTU21D;51062;45.120;37.660;2023-05-20T06:16:54;28.28;43.13
64652;HTU21D;51062;45.120;37.660;2023-05-20T06:19:20;28.42;43.06
64652;HTU21D;51062;45.120;37.660;2023-05-20T06:21:46;28.52;42.60
64652;HTU21D;51062;45.120;37.660;2023-05-20T06:24:13;28.46;41.83
64652;HTU21D;51062;45.120;37.660;2023-05-20T06:26:39;28.29;42.12
64652;HTU21D;51062;45.120;37.660;2023-05-20T06:29:07;28.30;42.19
64652;HTU21D;51062;45.120;37.660;2023-05-20T06:31:33;28.26;41.34
64652;HTU21D;51062;45.120;37.660;2023-05-20T06:34:20;28.19;41.70
64652;HTU21D;51062;45.120;37.660;2023-05-20T06:36:46;28.30;41.74
64652;HTU21D;51062;45.120;37.660;2023-05-20T06:39:13;28.41;41.29
64652;HTU21D;51062;45.120;37.660;2023-05-20T06:41:42;28.45;41.37
64652;HTU21D;51062;45.120;37.660;2023-05-20T06:44:09;28.59;41.30
64652;HTU21D;51062;45.120;37.660;2023-05-20T06:46:54;28.77;41.02
64652;HTU21D;51062;45.120;37.660;2023-05-20T06:49:20;28.79;40.42
64652;HTU21D;51062;45.120;37.660;2023-05-20T06:51:47;28.73;40.42
64652;HTU21D;51062;45.120;37.660;2023-05-20T06:54:13;28.77;40.57
64652;HTU21D;51062;45.120;37.660;2023-05-20T06:56:41;28.84;40.44
64652;HTU21D;51062;45.120;37.660;2023-05-20T06:59:07;28.83;40.34
64652;HTU21D;51062;45.120;37.660;2023-05-20T07:01:34;28.80;40.13
64652;HTU21D;51062;45.120;37.660;2023-05-20T07:04:01;28.85;40.13
64652;HTU21D;51062;45.120;37.660;2023-05-20T07:06:28;28.99;39.99
64652;HTU21D;51062;45.120;37.660;2023-05-20T07:08:57;29.15;40.01
64652;HTU21D;51062;45.120;37.660;2023-05-20T07:11:25;29.26;39.56
64652;HTU21D;51062;45.120;37.660;2023-05-20T07:13:51;29.24;39.04
64652;HTU21D;51062;45.120;37.660;2023-05-20T07:16:18;29.18;38.32
64652;HTU21D;51062;45.120;37.660;2023-05-20T07:18:49;29.04;38.23
64652;HTU21D;51062;45.120;37.660;2023-05-20T07:21:15;28.99;38.33
64652;HTU21D;51062;45.120;37.660;2023-05-20T07:23:54;29.04;38.41
64652;HTU21D;51062;45.120;37.660;2023-05-20T07:26:20;29.08;38.10
64652;HTU21D;51062;45.120;37.660;2023-05-20T07:28:46;29.03;37.90
64652;HTU21D;51062;45.120;37.660;2023-05-20T07:31:12;29.07;38.14
64652;HTU21D;51062;45.120;37.660;2023-05-20T07:33:42;29.12;37.45
64652;HTU21D;51062;45.120;37.660;2023-05-20T07:36:09;29.09;37.01
64652;HTU21D;51062;45.120;37.660;2023-05-20T07:38:35;0.00;37.24
64652;HTU21D;51062;45.120;37.660;2023-05-20T07:41:06;29.06;36.97
64652;HTU21D;51062;45.120;37.660;2023-05-20T07:43:33;29.04;36.84
64652;HTU21D;51062;45.120;37.660;2023-05-20T07:46:00;29.02;36.60
64652;HTU21D;51062;45.120;37.660;2023-05-20T07:48:26;28.94;36.64
64652;HTU21D;51062;45.120;37.660;2023-05-20T07:50:53;28.78;35.53
64652;HTU21D;51062;45.120;37.660;2023-05-20T07:53:22;28.61;35.62
64652;HTU21D;51062;45.120;37.660;2023-05-20T07:55:48;28.53;35.66
64652;HTU21D;51062;45.120;37.660;2023-05-20T07:58:14;28.42;35.27
64652;HTU21D;51062;45.120;37.660;2023-05-20T08:00:40;28.23;35.28
64652;HTU21D;51062;45.120;37.660;2023-05-20T08:03:07;28.04;35.39
64652;HTU21D;51062;45.120;37.660;2023-05-20T08:05:48;27.80;34.81
64652;HTU21D;51062;45.120;37.660;2023-05-20T08:08:14;27.44;34.88
64652;HTU21D;51062;45.120;37.660;2023-05-20T08:10:50;27.10;34.84
64652;HTU21D;51062;45.120;37.660;2023-05-20T08:13:19;26.84;34.95
64652;HTU21D;51062;45.120;37.660;2023-05-20T08:15:45;26.67;35.40
64652;HTU21D;51062;45.120;37.660;2023-05-20T08:18:14;26.63;35.82
64652;HTU21D;51062;45.120;37.660;2023-05-20T08:20:40;26.61;35.79
64652;HTU21D;51062;45.120;37.660;2023-05-20T08:23:10;26.58;35.52
64652;HTU21D;51062;45.120;37.660;2023-05-20T08:25:36;26.51;35.71
64652;HTU21D;51062;45.120;37.660;2023-05-20T08:28:04;26.48;35.56
64652;HTU21D;51062;45.120;37.660;2023-05-20T08:30:32;26.45;35.31
64652;HTU21D;51062;45.120;37.660;2023-05-20T08:33:00;0.00;35.59
64652;HTU21D;51062;45.120;37.660;2023-05-20T08:35:27;26.41;35.66
64652;HTU21D;51062;45.120;37.660;2023-05-20T08:37:54;26.45;35.65
64652;HTU21D;51062;45.120;37.660;2023-05-20T08:40:21;26.42;35.56
64652;HTU21D;51062;45.120;37.660;2023-05-20T08:42:49;26.38;35.44
64652;HTU21D;51062;45.120;37.660;2023-05-20T08:45:19;26.36;35.60
64652;HTU21D;51062;45.120;37.660;2023-05-20T08:47:54;26.35;35.37
64652;HTU21D;51062;45.120;37.660;2023-05-20T08:50:20;26.36;35.35
64652;HTU21D;51062;45.120;37.660;2023-05-20T08:52:47;26.35;35.09
64652;HTU21D;51062;45.120;37.660;2023-05-20T08:55:16;26.32;34.83
64652;HTU21D;51062;45.120;37.660;2023-05-20T08:57:50;26.32;35.31
64652;HTU21D;51062;45.120;37.660;2023-05-20T09:00:16;26.41;35.23
64652;HTU21D;51062;45.120;37.660;2023-05-20T09:02:46;26.48;35.15
64652;HTU21D;51062;45.120;37.660;2023-05-20T09:05:12;26.50;35.14
64652;HTU21D;51062;45.120;37.660;2023-05-20T09:07:39;26.49;34.98
64652;HTU21D;51062;45.120;37.660;2023-05-20T09:10:07;26.46;35.08
64652;HTU21D;51062;45.120;37.660;2023-05-20T09:12:34;26.48;35.05
64652;HTU21D;51062;45.120;37.660;2023-05-20T09:15:01;26.47;34.95
64652;HTU21D;51062;45.120;37.660;2023-05-20T09:17:27;26.45;34.88
64652;HTU21D;51062;45.120;37.660;2023-05-20T09:19:53;26.43;35.15
64652;HTU21D;51062;45.120;37.660;2023-05-20T09:22:24;26.45;34.51
64652;HTU21D;51062;45.120;37.660;2023-05-20T09:24:51;26.39;34.10
64652;HTU21D;51062;45.120;37.660;2023-05-20T09:27:18;26.37;34.59
64652;HTU21D;51062;45.120;37.660;2023-05-20T09:29:47;26.41;34.73
64652;HTU21D;51062;45.120;37.660;2023-05-20T09:32:14;26.45;34.47
64652;HTU21D;51062;45.120;37.660;2023-05-20T09:34:40;26.48;34.51
64652;HTU21D;51062;45.120;37.660;2023-05-20T09:37:08;26.53;34.63
64652;HTU21D;51062;45.120;37.660;2023-05-20T09:39:43;26.51;34.80
64652;HTU21D;51062;45.120;37.660;2023-05-20T09:42:24;26.60;34.71
64652;HTU21D;51062;45.120;37.660;2023-05-20T09:44:52;26.62;34.66
64652;HTU21D;51062;45.120;37.660;2023-05-20T09:47:19;26.66;34.57
64652;HTU21D;51062;45.120;37.660;2023-05-20T09:49:46;26.64;34.50
64652;HTU21D;51062;45.120;37.660;2023-05-20T09:52:14;26.64;34.37
64652;HTU21D;51062;45.120;37.660;2023-05-20T09:54:41;26.70;34.45
64652;HTU21D;51062;45.120;37.660;2023-05-20T09:57:08;26.73;34.34
64652;HTU21D;51062;45.120;37.660;2023-05-20T09:59:36;26.73;33.97
64652;HTU21D;51062;45.120;37.660;2023-05-20T10:02:03;26.70;34.02
64652;HTU21D;51062;45.120;37.660;2023-05-20T10:04:32;26.66;34.12
64652;HTU21D;51062;45.120;37.660;2023-05-20T10:07:12;26.70;34.35
64652;HTU21D;51062;45.120;37.660;2023-05-20T10:13:02;26.56;34.41
64652;HTU21D;51062;45.120;37.660;2023-05-20T10:21:16;26.31;34.60
64652;HTU21D;51062;45.120;37.660;2023-05-20T10:23:43;26.17;34.23
64652;HTU21D;51062;45.120;37.660;2023-05-20T10:26:09;26.13;34.22
64652;HTU21D;51062;45.120;37.660;2023-05-20T10:28:37;26.21;34.47
64652;HTU21D;51062;45.120;37.660;2023-05-20T10:31:20;26.35;33.83
64652;HTU21D;51062;45.120;37.660;2023-05-20T10:33:47;26.42;34.15
64652;HTU21D;51062;45.120;37.660;2023-05-20T10:36:26;26.47;33.42
64652;HTU21D;51062;45.120;37.660;2023-05-20T10:38:54;26.51;33.46
64652;HTU21D;51062;45.120;37.660;2023-05-20T10:41:24;26.52;33.39
64652;HTU21D;51062;45.120;37.660;2023-05-20T10:44:05;26.55;33.21
64652;HTU21D;51062;45.120;37.660;2023-05-20T10:46:33;26.55;33.52
64652;HTU21D;51062;45.120;37.660;2023-05-20T10:49:02;26.60;33.86
64652;HTU21D;51062;45.120;37.660;2023-05-20T10:51:29;26.65;33.86
64652;HTU21D;51062;45.120;37.660;2023-05-20T10:53:58;26.69;33.70
64652;HTU21D;51062;45.120;37.660;2023-05-20T10:56:25;26.72;33.98
64652;HTU21D;51062;45.120;37.660;2023-05-20T10:58:53;26.81;34.03
64652;HTU21D;51062;45.120;37.660;2023-05-20T11:01:24;26.80;33.80
64652;HTU21D;51062;45.120;37.660;2023-05-20T11:03:53;26.79;33.86
64652;HTU21D;51062;45.120;37.660;2023-05-20T11:06:25;26.80;34.03
64652;HTU21D;51062;45.120;37.660;2023-05-20T11:08:52;26.79;33.86
64652;HTU21D;51062;45.120;37.660;2023-05-20T11:11:17;26.75;33.80
64652;HTU21D;51062;45.120;37.660;2023-05-20T11:13:44;26.72;33.83
64652;HTU21D;51062;45.120;37.660;2023-05-20T11:16:15;26.70;33.44
64652;HTU21D;51062;45.120;37.660;2023-05-20T11:18:41;26.68;33.60
64652;HTU21D;51062;45.120;37.660;2023-05-20T11:21:07;26.67;33.71
64652;HTU21D;51062;45.120;37.660;2023-05-20T11:23:33;26.60;33.73
64652;HTU21D;51062;45.120;37.660;2023-05-20T11:25:59;26.48;33.85
64652;HTU21D;51062;45.120;37.660;2023-05-20T11:28:26;26.43;34.05
64652;HTU21D;51062;45.120;37.660;2023-05-20T11:30:52;26.45;34.15
64652;HTU21D;51062;45.120;37.660;2023-05-20T11:33:19;26.51;34.15
64652;HTU21D;51062;45.120;37.660;2023-05-20T11:35:50;26.58;34.12
64652;HTU21D;51062;45.120;37.660;2023-05-20T11:38:18;26.65;34.00
64652;HTU21D;51062;45.120;37.660;2023-05-20T11:40:46;26.68;34.10
64652;HTU21D;51062;45.120;37.660;2023-05-20T11:43:13;26.70;34.28
64652;HTU21D;51062;45.120;37.660;2023-05-20T11:45:44;26.65;34.15
64652;HTU21D;51062;45.120;37.660;2023-05-20T11:48:11;26.54;34.15
64652;HTU21D;51062;45.120;37.660;2023-05-20T11:50:38;26.40;34.35
64652;HTU21D;51062;45.120;37.660;2023-05-20T11:53:07;26.28;34.37
64652;HTU21D;51062;45.120;37.660;2023-05-20T11:55:44;26.17;34.51
64652;HTU21D;51062;45.120;37.660;2023-05-20T11:58:15;26.08;34.62
64652;HTU21D;51062;45.120;37.660;2023-05-20T12:00:41;26.01;34.65
64652;HTU21D;51062;45.120;37.660;2023-05-20T12:03:07;25.93;34.86
64652;HTU21D;51062;45.120;37.660;2023-05-20T12:05:33;25.88;34.95
64652;HTU21D;51062;45.120;37.660;2023-05-20T12:07:59;25.83;34.92
64652;HTU21D;51062;45.120;37.660;2023-05-20T12:10:25;25.77;34.84
64652;HTU21D;51062;45.120;37.660;2023-05-20T12:12:52;25.72;35.05
64652;HTU21D;51062;45.120;37.660;2023-05-20T12:15:17;25.71;35.23
64652;HTU21D;51062;45.120;37.660;2023-05-20T12:17:48;25.69;35.37
64652;HTU21D;51062;45.120;37.660;2023-05-20T12:20:16;25.67;35.23
64652;HTU21D;51062;45.120;37.660;2023-05-20T12:22:45;25.64;35.28
64652;HTU21D;51062;45.120;37.660;2023-05-20T12:25:13;25.62;35.35
64652;HTU21D;51062;45.120;37.660;2023-05-20T12:27:40;25.61;35.37
64652;HTU21D;51062;45.120;37.660;2023-05-20T12:30:08;25.59;35.43
64652;HTU21D;51062;45.120;37.660;2023-05-20T12:32:36;25.65;35.53
64652;HTU21D;51062;45.120;37.660;2023-05-20T12:35:02;25.78;35.58
64652;HTU21D;51062;45.120;37.660;2023-05-20T12:37:29;25.93;35.59
64652;HTU21D;51062;45.120;37.660;2023-05-20T12:39:56;26.08;35.40
64652;HTU21D;51062;45.120;37.660;2023-05-20T12:42:22;26.18;35.35
64652;HTU21D;51062;45.120;37.660;2023-05-20T12:44:48;26.27;35.39
64652;HTU21D;51062;45.120;37.660;2023-05-20T12:47:14;26.35;35.31
64652;HTU21D;51062;45.120;37.660;2023-05-20T12:49:40;26.39;35.34
64652;HTU21D;51062;45.120;37.660;2023-05-20T12:52:06;26.43;35.37
64652;HTU21D;51062;45.120;37.660;2023-05-20T12:54:32;26.47;35.49
64652;HTU21D;51062;45.120;37.660;2023-05-20T12:56:58;26.51;35.53
64652;HTU21D;51062;45.120;37.660;2023-05-20T12:59:25;26.45;35.52
64652;HTU21D;51062;45.120;37.660;2023-05-20T13:01:51;26.32;35.56
64652;HTU21D;51062;45.120;37.660;2023-05-20T13:04:17;26.18;35.65
64652;HTU21D;51062;45.120;37.660;2023-05-20T13:06:44;26.04;35.63
64652;HTU21D;51062;45.120;37.660;2023-05-20T13:09:10;25.92;35.85
64652;HTU21D;51062;45.120;37.660;2023-05-20T13:11:37;25.87;35.98
64652;HTU21D;51062;45.120;37.660;2023-05-20T13:14:03;25.81;35.97
64652;HTU21D;51062;45.120;37.660;2023-05-20T13:16:29;25.75;36.05
64652;HTU21D;51062;45.120;37.660;2023-05-20T13:18:55;25.72;36.02
64652;HTU21D;51062;45.120;37.660;2023-05-20T13:21:21;25.66;36.13
64652;HTU21D;51062;45.120;37.660;2023-05-20T13:23:47;25.63;36.25
64652;HTU21D;51062;45.120;37.660;2023-05-20T13:26:14;25.59;36.19
64652;HTU21D;51062;45.120;37.660;2023-05-20T13:28:40;25.53;36.21
64652;HTU21D;51062;45.120;37.660;2023-05-20T13:31:06;25.48;36.14
64652;HTU21D;51062;45.120;37.660;2023-05-20T13:33:32;25.42;36.11
64652;HTU21D;51062;45.120;37.660;2023-05-20T13:36:00;25.37;36.30
64652;HTU21D;51062;45.120;37.660;2023-05-20T13:38:26;25.31;36.40
64652;HTU21D;51062;45.120;37.660;2023-05-20T13:40:52;25.30;36.34
64652;HTU21D;51062;45.120;37.660;2023-05-20T13:43:18;25.28;36.47
64652;HTU21D;51062;45.120;37.660;2023-05-20T13:45:44;25.22;36.42
64652;HTU21D;51062;45.120;37.660;2023-05-20T13:48:10;25.15;36.47
64652;HTU21D;51062;45.120;37.660;2023-05-20T13:50:36;25.03;36.47
64652;HTU21D;51062;45.120;37.660;2023-05-20T13:53:02;24.94;36.60
64652;HTU21D;51062;45.120;37.660;2023-05-20T13:55:28;24.85;36.69
64652;HTU21D;51062;45.120;37.660;2023-05-20T13:57:54;24.76;36.76
64652;HTU21D;51062;45.120;37.660;2023-05-20T14:00:21;24.68;36.81
64652;HTU21D;51062;45.120;37.660;2023-05-20T14:02:47;24.61;36.92
64652;HTU21D;51062;45.120;37.660;2023-05-20T14:05:13;24.55;36.99
64652;HTU21D;51062;45.120;37.660;2023-05-20T14:07:39;24.48;37.09
64652;HTU21D;51062;45.120;37.660;2023-05-20T14:10:06;24.43;37.21
64652;HTU21D;51062;45.120;37.660;2023-05-20T14:12:33;24.40;37.30
64652;HTU21D;51062;45.120;37.660;2023-05-20T14:15:00;24.38;37.38
64652;HTU21D;51062;45.120;37.660;2023-05-20T14:17:26;24.35;37.49
64652;HTU21D;51062;45.120;37.660;2023-05-20T14:19:52;24.34;37.59
64652;HTU21D;51062;45.120;37.660;2023-05-20T14:22:18;24.34;37.66
64652;HTU21D;51062;45.120;37.660;2023-05-20T14:24:44;24.31;37.79
64652;HTU21D;51062;45.120;37.660;2023-05-20T14:27:10;24.31;37.85
64652;HTU21D;51062;45.120;37.660;2023-05-20T14:29:38;24.33;37.86
64652;HTU21D;51062;45.120;37.660;2023-05-20T14:32:05;24.34;37.93
64652;HTU21D;51062;45.120;37.660;2023-05-20T14:34:31;24.34;37.98
64652;HTU21D;51062;45.120;37.660;2023-05-20T14:36:57;24.35;38.08
64652;HTU21D;51062;45.120;37.660;2023-05-20T14:39:26;24.35;38.14
64652;HTU21D;51062;45.120;37.660;2023-05-20T14:41:52;24.34;38.22
64652;HTU21D;51062;45.120;37.660;2023-05-20T14:44:18;24.35;38.25
64652;HTU21D;51062;45.120;37.660;2023-05-20T14:46:44;24.41;38.29
64652;HTU21D;51062;45.120;37.660;2023-05-20T14:49:10;24.42;38.32
64652;HTU21D;51062;45.120;37.660;2023-05-20T14:51:36;24.44;38.33
64652;HTU21D;51062;45.120;37.660;2023-05-20T14:54:02;24.42;38.39
64652;HTU21D;51062;45.120;37.660;2023-05-20T14:56:29;24.40;38.46
64652;HTU21D;51062;45.120;37.660;2023-05-20T14:58:55;24.39;38.47
64652;HTU21D;51062;45.120;37.660;2023-05-20T15:01:22;24.35;38.53
64652;HTU21D;51062;45.120;37.660;2023-05-20T15:03:48;24.30;38.60
64652;HTU21D;51062;45.120;37.660;2023-05-20T15:06:14;24.27;38.67
64652;HTU21D;51062;45.120;37.660;2023-05-20T15:08:40;24.23;38.73
64652;HTU21D;51062;45.120;37.660;2023-05-20T15:11:06;24.20;0.00
64652;HTU21D;51062;45.120;37.660;2023-05-20T15:13:32;24.16;38.81